SCYC weather

La Capilla Airport
Puyehue, Los Lagos Region, Chile

Public forecast

Using degrees Celsius for public forecast. Weather courtesy of forecast.io.

METAR (pilot weather report)

Closest report is Cañal Bajo Carlos - Hott Siebert Airport, 13.7 nm (25.3 km) W. Retrieved 2019/03/25 14:00 UTC (16 minutes ago):

SCJO 251400Z 20007KT 9999 OVC010 11/09 Q1020

TAF (pilot weather forecast)

Closest forecast is Cañal Bajo Carlos - Hott Siebert Airport, 13.7 nm (25.3 km) W. Retrieved 2019/03/25 12:33 UTC (2 hours ago):

TAF SCJO 251015Z 2512/2524 20005KT 9999 OVC010 TN11/2512Z TX21/2520Z BECMG 2513/2515 SCT020 BECMG 2517/2519 18010KT CAVOK